sensor_id;sensor_type;location;lat;lon;timestamp;P1;durP1;ratioP1;P2;durP2;ratioP2
53618;SDS011;68717;53.040;18.488;2023-04-06T00:00:02;39.70;;;22.15;;
53618;SDS011;68717;53.040;18.488;2023-04-06T00:00:17;40.00;;;22.10;;
53618;SDS011;68717;53.040;18.488;2023-04-06T00:00:50;41.25;;;21.55;;
53618;SDS011;68717;53.040;18.488;2023-04-06T00:01:05;41.10;;;21.67;;
53618;SDS011;68717;53.040;18.488;2023-04-06T00:01:18;40.92;;;22.02;;
53618;SDS011;68717;53.040;18.488;2023-04-06T00:01:31;43.22;;;22.38;;
53618;SDS011;68717;53.040;18.488;2023-04-06T00:01:43;42.22;;;22.15;;
53618;SDS011;68717;53.040;18.488;2023-04-06T00:01:56;40.67;;;21.65;;
53618;SDS011;68717;53.040;18.488;2023-04-06T00:02:09;39.10;;;21.17;;
53618;SDS011;68717;53.040;18.488;2023-04-06T00:02:22;40.67;;;21.70;;
53618;SDS011;68717;53.040;18.488;2023-04-06T00:02:35;39.50;;;21.70;;
53618;SDS011;68717;53.040;18.488;2023-04-06T00:02:48;37.63;;;20.88;;
53618;SDS011;68717;53.040;18.488;2023-04-06T00:03:02;36.03;;;20.25;;
53618;SDS011;68717;53.040;18.488;2023-04-06T00:03:15;34.65;;;20.45;;
53618;SDS011;68717;53.040;18.488;2023-04-06T00:03:28;36.22;;;20.50;;
53618;SDS011;68717;53.040;18.488;2023-04-06T00:03:41;36.80;;;20.25;;
53618;SDS011;68717;53.040;18.488;2023-04-06T00:03:54;36.28;;;19.92;;
53618;SDS011;68717;53.040;18.488;2023-04-06T00:04:07;37.03;;;20.27;;
53618;SDS011;68717;53.040;18.488;2023-04-06T00:04:20;38.53;;;20.05;;
53618;SDS011;68717;53.040;18.488;2023-04-06T00:04:33;36.50;;;19.48;;
53618;SDS011;68717;53.040;18.488;2023-04-06T00:04:46;36.53;;;19.73;;
53618;SDS011;68717;53.040;18.488;2023-04-06T00:04:59;36.47;;;19.60;;
53618;SDS011;68717;53.040;18.488;2023-04-06T00:05:12;35.63;;;19.95;;
53618;SDS011;68717;53.040;18.488;2023-04-06T00:05:25;36.25;;;20.05;;
53618;SDS011;68717;53.040;18.488;2023-04-06T00:05:38;37.13;;;20.20;;
53618;SDS011;68717;53.040;18.488;2023-04-06T00:05:51;37.25;;;20.60;;
53618;SDS011;68717;53.040;18.488;2023-04-06T00:06:05;38.33;;;21.25;;
53618;SDS011;68717;53.040;18.488;2023-04-06T00:06:18;36.67;;;20.70;;
53618;SDS011;68717;53.040;18.488;2023-04-06T00:06:30;35.60;;;20.15;;
53618;SDS011;68717;53.040;18.488;2023-04-06T00:06:43;36.20;;;19.77;;
53618;SDS011;68717;53.040;18.488;2023-04-06T00:06:56;36.75;;;19.92;;
53618;SDS011;68717;53.040;18.488;2023-04-06T00:07:09;37.13;;;20.42;;
53618;SDS011;68717;53.040;18.488;2023-04-06T00:07:21;36.70;;;20.10;;
53618;SDS011;68717;53.040;18.488;2023-04-06T00:07:35;37.95;;;19.73;;
53618;SDS011;68717;53.040;18.488;2023-04-06T00:07:48;36.92;;;19.20;;
53618;SDS011;68717;53.040;18.488;2023-04-06T00:08:00;36.83;;;19.58;;
53618;SDS011;68717;53.040;18.488;2023-04-06T00:08:13;37.78;;;19.77;;
53618;SDS011;68717;53.040;18.488;2023-04-06T00:08:26;37.70;;;20.13;;
53618;SDS011;68717;53.040;18.488;2023-04-06T00:08:41;36.72;;;19.98;;
53618;SDS011;68717;53.040;18.488;2023-04-06T00:08:53;36.20;;;20.10;;
53618;SDS011;68717;53.040;18.488;2023-04-06T00:09:06;36.00;;;20.20;;
53618;SDS011;68717;53.040;18.488;2023-04-06T00:09:20;37.83;;;20.30;;
53618;SDS011;68717;53.040;18.488;2023-04-06T00:09:33;37.28;;;20.38;;
53618;SDS011;68717;53.040;18.488;2023-04-06T00:09:45;36.25;;;20.30;;
53618;SDS011;68717;53.040;18.488;2023-04-06T00:09:58;37.53;;;20.08;;
53618;SDS011;68717;53.040;18.488;2023-04-06T00:10:11;39.92;;;20.48;;
53618;SDS011;68717;53.040;18.488;2023-04-06T00:10:24;41.30;;;20.58;;
53618;SDS011;68717;53.040;18.488;2023-04-06T00:10:38;39.38;;;20.52;;
53618;SDS011;68717;53.040;18.488;2023-04-06T00:10:51;38.38;;;20.70;;
53618;SDS011;68717;53.040;18.488;2023-04-06T00:11:03;38.13;;;21.15;;
53618;SDS011;68717;53.040;18.488;2023-04-06T00:11:16;38.85;;;21.38;;
53618;SDS011;68717;53.040;18.488;2023-04-06T00:11:29;39.55;;;21.23;;
53618;SDS011;68717;53.040;18.488;2023-04-06T00:11:42;40.13;;;21.75;;
53618;SDS011;68717;53.040;18.488;2023-04-06T00:11:54;39.15;;;21.63;;
53618;SDS011;68717;53.040;18.488;2023-04-06T00:12:07;38.55;;;21.35;;
53618;SDS011;68717;53.040;18.488;2023-04-06T00:12:21;38.95;;;21.42;;
53618;SDS011;68717;53.040;18.488;2023-04-06T00:12:33;38.50;;;21.25;;
53618;SDS011;68717;53.040;18.488;2023-04-06T00:12:46;39.30;;;21.38;;
53618;SDS011;68717;53.040;18.488;2023-04-06T00:12:59;38.05;;;21.08;;
53618;SDS011;68717;53.040;18.488;2023-04-06T00:13:12;39.78;;;21.60;;
53618;SDS011;68717;53.040;18.488;2023-04-06T00:13:25;42.10;;;22.00;;
53618;SDS011;68717;53.040;18.488;2023-04-06T00:13:37;41.67;;;21.23;;
53618;SDS011;68717;53.040;18.488;2023-04-06T00:13:50;40.45;;;20.83;;
53618;SDS011;68717;53.040;18.488;2023-04-06T00:14:04;38.70;;;20.67;;
53618;SDS011;68717;53.040;18.488;2023-04-06T00:14:17;38.08;;;20.77;;
53618;SDS011;68717;53.040;18.488;2023-04-06T00:14:29;38.00;;;21.20;;
53618;SDS011;68717;53.040;18.488;2023-04-06T00:14:42;39.08;;;21.67;;
53618;SDS011;68717;53.040;18.488;2023-04-06T00:14:55;40.35;;;22.17;;
53618;SDS011;68717;53.040;18.488;2023-04-06T00:15:08;40.05;;;22.08;;
53618;SDS011;68717;53.040;18.488;2023-04-06T00:15:21;40.90;;;21.80;;
53618;SDS011;68717;53.040;18.488;2023-04-06T00:15:34;40.75;;;20.95;;
53618;SDS011;68717;53.040;18.488;2023-04-06T00:15:47;39.03;;;20.38;;
53618;SDS011;68717;53.040;18.488;2023-04-06T00:16:00;38.28;;;20.80;;
53618;SDS011;68717;53.040;18.488;2023-04-06T00:16:13;38.95;;;21.00;;
53618;SDS011;68717;53.040;18.488;2023-04-06T00:16:26;38.10;;;20.80;;
53618;SDS011;68717;53.040;18.488;2023-04-06T00:16:41;39.15;;;21.40;;
53618;SDS011;68717;53.040;18.488;2023-04-06T00:16:54;39.55;;;21.45;;
53618;SDS011;68717;53.040;18.488;2023-04-06T00:17:08;38.13;;;20.85;;
53618;SDS011;68717;53.040;18.488;2023-04-06T00:17:21;38.33;;;20.65;;
53618;SDS011;68717;53.040;18.488;2023-04-06T00:17:35;39.22;;;20.67;;
53618;SDS011;68717;53.040;18.488;2023-04-06T00:17:48;39.63;;;20.77;;
53618;SDS011;68717;53.040;18.488;2023-04-06T00:18:00;38.08;;;20.67;;
53618;SDS011;68717;53.040;18.488;2023-04-06T00:18:14;38.55;;;20.70;;
53618;SDS011;68717;53.040;18.488;2023-04-06T00:18:26;40.15;;;20.75;;
53618;SDS011;68717;53.040;18.488;2023-04-06T00:18:39;38.65;;;20.33;;
53618;SDS011;68717;53.040;18.488;2023-04-06T00:18:53;38.25;;;20.42;;
53618;SDS011;68717;53.040;18.488;2023-04-06T00:19:06;38.42;;;20.70;;
53618;SDS011;68717;53.040;18.488;2023-04-06T00:19:19;39.63;;;21.02;;
53618;SDS011;68717;53.040;18.488;2023-04-06T00:19:31;41.10;;;21.00;;
53618;SDS011;68717;53.040;18.488;2023-04-06T00:19:44;41.75;;;21.95;;
53618;SDS011;68717;53.040;18.488;2023-04-06T00:19:57;43.50;;;22.55;;
53618;SDS011;68717;53.040;18.488;2023-04-06T00:20:10;44.15;;;22.65;;
53618;SDS011;68717;53.040;18.488;2023-04-06T00:20:23;44.85;;;22.30;;
53618;SDS011;68717;53.040;18.488;2023-04-06T00:20:37;43.85;;;22.42;;
53618;SDS011;68717;53.040;18.488;2023-04-06T00:20:50;44.30;;;23.73;;
53618;SDS011;68717;53.040;18.488;2023-04-06T00:21:03;46.75;;;24.88;;
53618;SDS011;68717;53.040;18.488;2023-04-06T00:21:16;48.40;;;25.38;;
53618;SDS011;68717;53.040;18.488;2023-04-06T00:21:29;48.08;;;24.55;;
53618;SDS011;68717;53.040;18.488;2023-04-06T00:21:43;44.53;;;22.88;;
53618;SDS011;68717;53.040;18.488;2023-04-06T00:21:56;43.55;;;22.55;;
53618;SDS011;68717;53.040;18.488;2023-04-06T00:22:09;43.85;;;22.55;;
53618;SDS011;68717;53.040;18.488;2023-04-06T00:22:22;44.08;;;22.52;;
53618;SDS011;68717;53.040;18.488;2023-04-06T00:22:35;44.80;;;22.40;;
53618;SDS011;68717;53.040;18.488;2023-04-06T00:22:48;45.97;;;22.25;;
53618;SDS011;68717;53.040;18.488;2023-04-06T00:23:01;45.35;;;22.30;;
53618;SDS011;68717;53.040;18.488;2023-04-06T00:23:14;44.85;;;22.38;;
53618;SDS011;68717;53.040;18.488;2023-04-06T00:23:26;45.05;;;22.65;;
53618;SDS011;68717;53.040;18.488;2023-04-06T00:23:41;44.97;;;22.60;;
53618;SDS011;68717;53.040;18.488;2023-04-06T00:23:53;45.80;;;22.83;;
53618;SDS011;68717;53.040;18.488;2023-04-06T00:24:06;45.85;;;22.73;;
53618;SDS011;68717;53.040;18.488;2023-04-06T00:24:20;46.03;;;23.00;;
53618;SDS011;68717;53.040;18.488;2023-04-06T00:24:33;46.13;;;22.75;;
53618;SDS011;68717;53.040;18.488;2023-04-06T00:24:45;46.65;;;22.80;;
53618;SDS011;68717;53.040;18.488;2023-04-06T00:24:58;44.63;;;22.13;;
53618;SDS011;68717;53.040;18.488;2023-04-06T00:25:10;43.35;;;21.75;;
53618;SDS011;68717;53.040;18.488;2023-04-06T00:25:23;42.88;;;21.95;;
53618;SDS011;68717;53.040;18.488;2023-04-06T00:25:36;42.17;;;21.70;;
53618;SDS011;68717;53.040;18.488;2023-04-06T00:25:50;41.15;;;21.35;;
53618;SDS011;68717;53.040;18.488;2023-04-06T00:26:02;42.33;;;21.63;;
53618;SDS011;68717;53.040;18.488;2023-04-06T00:26:15;41.67;;;21.25;;
53618;SDS011;68717;53.040;18.488;2023-04-06T00:26:28;39.40;;;20.40;;
53618;SDS011;68717;53.040;18.488;2023-04-06T00:26:40;37.95;;;19.95;;
53618;SDS011;68717;53.040;18.488;2023-04-06T00:26:53;39.13;;;20.70;;
53618;SDS011;68717;53.040;18.488;2023-04-06T00:27:07;38.38;;;20.35;;
53618;SDS011;68717;53.040;18.488;2023-04-06T00:27:20;38.70;;;19.85;;
53618;SDS011;68717;53.040;18.488;2023-04-06T00:27:33;39.85;;;19.83;;
53618;SDS011;68717;53.040;18.488;2023-04-06T00:27:46;38.75;;;19.90;;
53618;SDS011;68717;53.040;18.488;2023-04-06T00:27:59;38.65;;;20.23;;
53618;SDS011;68717;53.040;18.488;2023-04-06T00:28:12;39.42;;;20.90;;
53618;SDS011;68717;53.040;18.488;2023-04-06T00:28:24;39.80;;;20.70;;
53618;SDS011;68717;53.040;18.488;2023-04-06T00:28:38;41.67;;;21.33;;
53618;SDS011;68717;53.040;18.488;2023-04-06T00:28:50;45.33;;;21.95;;
53618;SDS011;68717;53.040;18.488;2023-04-06T00:29:04;44.13;;;21.35;;
53618;SDS011;68717;53.040;18.488;2023-04-06T00:29:18;43.00;;;21.27;;
53618;SDS011;68717;53.040;18.488;2023-04-06T00:29:31;42.13;;;21.45;;
53618;SDS011;68717;53.040;18.488;2023-04-06T00:29:44;42.13;;;21.90;;
53618;SDS011;68717;53.040;18.488;2023-04-06T00:29:57;43.67;;;22.23;;
53618;SDS011;68717;53.040;18.488;2023-04-06T00:30:10;45.83;;;22.85;;
53618;SDS011;68717;53.040;18.488;2023-04-06T00:30:23;46.60;;;23.15;;
53618;SDS011;68717;53.040;18.488;2023-04-06T00:30:36;46.63;;;23.40;;
53618;SDS011;68717;53.040;18.488;2023-04-06T00:30:49;46.47;;;23.75;;
53618;SDS011;68717;53.040;18.488;2023-04-06T00:31:02;45.90;;;23.75;;
53618;SDS011;68717;53.040;18.488;2023-04-06T00:31:16;45.65;;;23.77;;
53618;SDS011;68717;53.040;18.488;2023-04-06T00:31:29;46.42;;;24.15;;
53618;SDS011;68717;53.040;18.488;2023-04-06T00:31:41;46.88;;;24.23;;
53618;SDS011;68717;53.040;18.488;2023-04-06T00:31:54;45.85;;;23.90;;
53618;SDS011;68717;53.040;18.488;2023-04-06T00:32:07;46.72;;;24.45;;
53618;SDS011;68717;53.040;18.488;2023-04-06T00:32:21;48.72;;;24.70;;
53618;SDS011;68717;53.040;18.488;2023-04-06T00:32:34;50.13;;;25.77;;
53618;SDS011;68717;53.040;18.488;2023-04-06T00:32:47;51.90;;;26.58;;
53618;SDS011;68717;53.040;18.488;2023-04-06T00:33:00;53.15;;;26.80;;
53618;SDS011;68717;53.040;18.488;2023-04-06T00:33:13;50.08;;;26.17;;
53618;SDS011;68717;53.040;18.488;2023-04-06T00:33:25;49.85;;;25.52;;
53618;SDS011;68717;53.040;18.488;2023-04-06T00:33:38;49.83;;;25.63;;
53618;SDS011;68717;53.040;18.488;2023-04-06T00:33:51;50.47;;;25.92;;
53618;SDS011;68717;53.040;18.488;2023-04-06T00:34:05;49.85;;;25.50;;
53618;SDS011;68717;53.040;18.488;2023-04-06T00:34:18;50.47;;;25.55;;
53618;SDS011;68717;53.040;18.488;2023-04-06T00:34:30;49.38;;;25.73;;
53618;SDS011;68717;53.040;18.488;2023-04-06T00:34:43;47.08;;;25.05;;
53618;SDS011;68717;53.040;18.488;2023-04-06T00:34:56;47.38;;;24.35;;
53618;SDS011;68717;53.040;18.488;2023-04-06T00:35:10;49.20;;;24.75;;
53618;SDS011;68717;53.040;18.488;2023-04-06T00:35:23;47.33;;;24.92;;
53618;SDS011;68717;53.040;18.488;2023-04-06T00:35:36;46.75;;;24.73;;
53618;SDS011;68717;53.040;18.488;2023-04-06T00:35:49;47.92;;;24.90;;
53618;SDS011;68717;53.040;18.488;2023-04-06T00:36:02;50.15;;;25.25;;
53618;SDS011;68717;53.040;18.488;2023-04-06T00:36:15;51.67;;;25.23;;
53618;SDS011;68717;53.040;18.488;2023-04-06T00:36:28;51.53;;;25.35;;
53618;SDS011;68717;53.040;18.488;2023-04-06T00:36:42;50.38;;;24.98;;
53618;SDS011;68717;53.040;18.488;2023-04-06T00:36:55;50.38;;;24.85;;
53618;SDS011;68717;53.040;18.488;2023-04-06T00:37:07;52.20;;;25.25;;
53618;SDS011;68717;53.040;18.488;2023-04-06T00:37:20;52.97;;;25.65;;
53618;SDS011;68717;53.040;18.488;2023-04-06T00:37:32;52.28;;;26.02;;
53618;SDS011;68717;53.040;18.488;2023-04-06T00:37:46;52.10;;;26.33;;
53618;SDS011;68717;53.040;18.488;2023-04-06T00:37:59;51.58;;;26.92;;
53618;SDS011;68717;53.040;18.488;2023-04-06T00:38:13;52.15;;;27.45;;
53618;SDS011;68717;53.040;18.488;2023-04-06T00:38:27;52.10;;;27.02;;
53618;SDS011;68717;53.040;18.488;2023-04-06T00:38:41;51.83;;;26.52;;
53618;SDS011;68717;53.040;18.488;2023-04-06T00:38:53;52.90;;;27.08;;
53618;SDS011;68717;53.040;18.488;2023-04-06T00:39:07;55.30;;;27.48;;
53618;SDS011;68717;53.040;18.488;2023-04-06T00:39:19;57.75;;;27.27;;
53618;SDS011;68717;53.040;18.488;2023-04-06T00:39:32;55.30;;;26.65;;
53618;SDS011;68717;53.040;18.488;2023-04-06T00:39:46;54.25;;;26.83;;
53618;SDS011;68717;53.040;18.488;2023-04-06T00:39:58;54.35;;;27.08;;
53618;SDS011;68717;53.040;18.488;2023-04-06T00:40:11;51.60;;;26.48;;
53618;SDS011;68717;53.040;18.488;2023-04-06T00:40:24;50.13;;;26.23;;
53618;SDS011;68717;53.040;18.488;2023-04-06T00:40:37;52.72;;;26.70;;
53618;SDS011;68717;53.040;18.488;2023-04-06T00:40:51;56.50;;;27.58;;
53618;SDS011;68717;53.040;18.488;2023-04-06T00:41:04;56.05;;;27.50;;
53618;SDS011;68717;53.040;18.488;2023-04-06T00:41:17;54.33;;;27.40;;
53618;SDS011;68717;53.040;18.488;2023-04-06T00:41:30;54.22;;;27.77;;
53618;SDS011;68717;53.040;18.488;2023-04-06T00:41:45;55.15;;;28.27;;
53618;SDS011;68717;53.040;18.488;2023-04-06T00:42:01;57.20;;;28.35;;
53618;SDS011;68717;53.040;18.488;2023-04-06T00:42:23;56.60;;;28.13;;
53618;SDS011;68717;53.040;18.488;2023-04-06T00:42:38;55.13;;;28.15;;
53618;SDS011;68717;53.040;18.488;2023-04-06T00:42:51;52.83;;;27.83;;
53618;SDS011;68717;53.040;18.488;2023-04-06T00:43:03;55.45;;;27.92;;
53618;SDS011;68717;53.040;18.488;2023-04-06T00:43:17;58.30;;;27.70;;
53618;SDS011;68717;53.040;18.488;2023-04-06T00:43:30;57.33;;;27.60;;
53618;SDS011;68717;53.040;18.488;2023-04-06T00:43:43;55.30;;;28.27;;
53618;SDS011;68717;53.040;18.488;2023-04-06T00:43:56;55.20;;;28.35;;
53618;SDS011;68717;53.040;18.488;2023-04-06T00:44:09;54.72;;;28.83;;
53618;SDS011;68717;53.040;18.488;2023-04-06T00:44:21;57.90;;;29.17;;
53618;SDS011;68717;53.040;18.488;2023-04-06T00:44:34;58.25;;;28.83;;
53618;SDS011;68717;53.040;18.488;2023-04-06T00:44:47;57.75;;;28.75;;
53618;SDS011;68717;53.040;18.488;2023-04-06T00:45:01;57.92;;;29.05;;
53618;SDS011;68717;53.040;18.488;2023-04-06T00:45:14;56.97;;;29.00;;
53618;SDS011;68717;53.040;18.488;2023-04-06T00:45:26;55.80;;;28.73;;
53618;SDS011;68717;53.040;18.488;2023-04-06T00:45:39;57.22;;;29.10;;
53618;SDS011;68717;53.040;18.488;2023-04-06T00:45:53;57.35;;;28.90;;
53618;SDS011;68717;53.040;18.488;2023-04-06T00:46:06;59.70;;;28.75;;
53618;SDS011;68717;53.040;18.488;2023-04-06T00:46:20;61.30;;;28.90;;
53618;SDS011;68717;53.040;18.488;2023-04-06T00:46:33;58.22;;;28.70;;
53618;SDS011;68717;53.040;18.488;2023-04-06T00:46:46;59.15;;;28.63;;
53618;SDS011;68717;53.040;18.488;2023-04-06T00:46:59;60.33;;;29.08;;
53618;SDS011;68717;53.040;18.488;2023-04-06T00:47:12;61.28;;;29.10;;
53618;SDS011;68717;53.040;18.488;2023-04-06T00:47:25;59.50;;;29.15;;
53618;SDS011;68717;53.040;18.488;2023-04-06T00:47:38;59.00;;;29.17;;
53618;SDS011;68717;53.040;18.488;2023-04-06T00:47:51;59.92;;;29.33;;
53618;SDS011;68717;53.040;18.488;2023-04-06T00:48:05;60.00;;;29.52;;
53618;SDS011;68717;53.040;18.488;2023-04-06T00:48:18;59.42;;;28.88;;
53618;SDS011;68717;53.040;18.488;2023-04-06T00:48:30;59.75;;;28.70;;
53618;SDS011;68717;53.040;18.488;2023-04-06T00:48:44;62.88;;;29.90;;
53618;SDS011;68717;53.040;18.488;2023-04-06T00:48:57;62.63;;;30.38;;
53618;SDS011;68717;53.040;18.488;2023-04-06T00:49:10;60.95;;;30.52;;
53618;SDS011;68717;53.040;18.488;2023-04-06T00:49:22;58.83;;;30.60;;
53618;SDS011;68717;53.040;18.488;2023-04-06T00:49:37;60.20;;;30.17;;
53618;SDS011;68717;53.040;18.488;2023-04-06T00:49:49;61.92;;;30.00;;
53618;SDS011;68717;53.040;18.488;2023-04-06T00:50:02;61.03;;;30.25;;
53618;SDS011;68717;53.040;18.488;2023-04-06T00:50:16;60.42;;;30.90;;
53618;SDS011;68717;53.040;18.488;2023-04-06T00:50:29;60.72;;;30.48;;
53618;SDS011;68717;53.040;18.488;2023-04-06T00:50:41;57.13;;;29.10;;
53618;SDS011;68717;53.040;18.488;2023-04-06T00:50:54;58.38;;;29.45;;
53618;SDS011;68717;53.040;18.488;2023-04-06T00:51:07;61.20;;;30.60;;
53618;SDS011;68717;53.040;18.488;2023-04-06T00:51:19;59.85;;;30.63;;
53618;SDS011;68717;53.040;18.488;2023-04-06T00:51:33;60.95;;;30.38;;
53618;SDS011;68717;53.040;18.488;2023-04-06T00:51:46;59.25;;;29.83;;
53618;SDS011;68717;53.040;18.488;2023-04-06T00:51:59;57.75;;;29.15;;
53618;SDS011;68717;53.040;18.488;2023-04-06T00:52:12;56.42;;;28.58;;
53618;SDS011;68717;53.040;18.488;2023-04-06T00:52:24;57.60;;;28.80;;
53618;SDS011;68717;53.040;18.488;2023-04-06T00:52:37;55.00;;;28.35;;
53618;SDS011;68717;53.040;18.488;2023-04-06T00:52:50;51.60;;;27.17;;
53618;SDS011;68717;53.040;18.488;2023-04-06T00:53:03;51.10;;;26.58;;
53618;SDS011;68717;53.040;18.488;2023-04-06T00:53:17;52.53;;;26.60;;
53618;SDS011;68717;53.040;18.488;2023-04-06T00:53:30;51.95;;;26.55;;
53618;SDS011;68717;53.040;18.488;2023-04-06T00:53:44;53.75;;;27.27;;
53618;SDS011;68717;53.040;18.488;2023-04-06T00:53:58;53.15;;;27.10;;
53618;SDS011;68717;53.040;18.488;2023-04-06T00:54:10;52.40;;;26.45;;
53618;SDS011;68717;53.040;18.488;2023-04-06T00:54:23;54.72;;;26.85;;
53618;SDS011;68717;53.040;18.488;2023-04-06T00:54:36;52.45;;;26.38;;
53618;SDS011;68717;53.040;18.488;2023-04-06T00:54:48;51.92;;;26.90;;
53618;SDS011;68717;53.040;18.488;2023-04-06T00:55:01;51.80;;;27.30;;
53618;SDS011;68717;53.040;18.488;2023-04-06T00:55:15;50.50;;;27.08;;
53618;SDS011;68717;53.040;18.488;2023-04-06T00:55:28;48.88;;;26.85;;
53618;SDS011;68717;53.040;18.488;2023-04-06T00:55:41;49.13;;;26.60;;
53618;SDS011;68717;53.040;18.488;2023-04-06T00:55:53;47.65;;;26.10;;
53618;SDS011;68717;53.040;18.488;2023-04-06T00:56:06;48.88;;;25.73;;
53618;SDS011;68717;53.040;18.488;2023-04-06T00:56:21;50.78;;;25.80;;
53618;SDS011;68717;53.040;18.488;2023-04-06T00:56:35;52.75;;;26.70;;
53618;SDS011;68717;53.040;18.488;2023-04-06T00:56:48;55.33;;;26.90;;
53618;SDS011;68717;53.040;18.488;2023-04-06T00:57:02;57.58;;;26.33;;
53618;SDS011;68717;53.040;18.488;2023-04-06T00:57:15;59.60;;;26.42;;
53618;SDS011;68717;53.040;18.488;2023-04-06T00:57:27;59.80;;;27.00;;
53618;SDS011;68717;53.040;18.488;2023-04-06T00:57:40;60.40;;;27.42;;
53618;SDS011;68717;53.040;18.488;2023-04-06T00:57:53;61.22;;;27.33;;
53618;SDS011;68717;53.040;18.488;2023-04-06T00:58:08;62.05;;;28.05;;
53618;SDS011;68717;53.040;18.488;2023-04-06T00:58:21;73.55;;;28.58;;
53618;SDS011;68717;53.040;18.488;2023-04-06T00:58:34;75.75;;;28.13;;
53618;SDS011;68717;53.040;18.488;2023-04-06T00:58:49;71.28;;;27.80;;
53618;SDS011;68717;53.040;18.488;2023-04-06T00:59:03;69.93;;;27.88;;
53618;SDS011;68717;53.040;18.488;2023-04-06T00:59:16;73.35;;;27.83;;
53618;SDS011;68717;53.040;18.488;2023-04-06T00:59:29;73.63;;;27.85;;
53618;SDS011;68717;53.040;18.488;2023-04-06T00:59:43;71.95;;;27.67;;
53618;SDS011;68717;53.040;18.488;2023-04-06T00:59:57;71.63;;;27.17;;
53618;SDS011;68717;53.040;18.488;2023-04-06T01:00:12;74.35;;;26.73;;
53618;SDS011;68717;53.040;18.488;2023-04-06T01:00:25;72.28;;;26.58;;
53618;SDS011;68717;53.040;18.488;2023-04-06T01:00:38;67.28;;;26.55;;
53618;SDS011;68717;53.040;18.488;2023-04-06T01:00:51;59.33;;;25.83;;
53618;SDS011;68717;53.040;18.488;2023-04-06T01:01:03;53.58;;;24.70;;
53618;SDS011;68717;53.040;18.488;2023-04-06T01:01:17;54.20;;;24.40;;
53618;SDS011;68717;53.040;18.488;2023-04-06T01:01:30;56.33;;;25.13;;
53618;SDS011;68717;53.040;18.488;2023-04-06T01:01:45;53.42;;;24.65;;
53618;SDS011;68717;53.040;18.488;2023-04-06T01:01:58;50.50;;;24.60;;
53618;SDS011;68717;53.040;18.488;2023-04-06T01:02:11;51.22;;;24.55;;
53618;SDS011;68717;53.040;18.488;2023-04-06T01:02:23;51.22;;;24.80;;
53618;SDS011;68717;53.040;18.488;2023-04-06T01:02:37;51.40;;;24.98;;
53618;SDS011;68717;53.040;18.488;2023-04-06T01:02:50;50.83;;;24.67;;
53618;SDS011;68717;53.040;18.488;2023-04-06T01:03:03;49.58;;;24.52;;
53618;SDS011;68717;53.040;18.488;2023-04-06T01:03:18;50.20;;;24.45;;
53618;SDS011;68717;53.040;18.488;2023-04-06T01:03:30;51.42;;;24.10;;
53618;SDS011;68717;53.040;18.488;2023-04-06T01:03:43;49.92;;;24.08;;
53618;SDS011;68717;53.040;18.488;2023-04-06T01:03:56;48.03;;;23.83;;
53618;SDS011;68717;53.040;18.488;2023-04-06T01:04:09;44.30;;;23.75;;
53618;SDS011;68717;53.040;18.488;2023-04-06T01:04:21;45.63;;;24.00;;
53618;SDS011;68717;53.040;18.488;2023-04-06T01:04:35;48.05;;;24.52;;
53618;SDS011;68717;53.040;18.488;2023-04-06T01:04:48;47.40;;;24.15;;
53618;SDS011;68717;53.040;18.488;2023-04-06T01:05:01;46.22;;;23.67;;
53618;SDS011;68717;53.040;18.488;2023-04-06T01:05:14;46.47;;;23.83;;
53618;SDS011;68717;53.040;18.488;2023-04-06T01:05:27;47.40;;;23.73;;
53618;SDS011;68717;53.040;18.488;2023-04-06T01:05:40;48.95;;;23.75;;
53618;SDS011;68717;53.040;18.488;2023-04-06T01:05:52;47.80;;;24.38;;
53618;SDS011;68717;53.040;18.488;2023-04-06T01:06:10;45.50;;;24.50;;
53618;SDS011;68717;53.040;18.488;2023-04-06T01:06:22;47.72;;;24.17;;
53618;SDS011;68717;53.040;18.488;2023-04-06T01:06:35;48.75;;;23.80;;
53618;SDS011;68717;53.040;18.488;2023-04-06T01:06:48;46.70;;;23.90;;
53618;SDS011;68717;53.040;18.488;2023-04-06T01:07:00;46.05;;;24.05;;
53618;SDS011;68717;53.040;18.488;2023-04-06T01:07:13;47.03;;;24.35;;
53618;SDS011;68717;53.040;18.488;2023-04-06T01:07:27;47.67;;;24.45;;
53618;SDS011;68717;53.040;18.488;2023-04-06T01:07:40;46.30;;;24.33;;
53618;SDS011;68717;53.040;18.488;2023-04-06T01:07:52;45.55;;;24.23;;
53618;SDS011;68717;53.040;18.488;2023-04-06T01:08:05;48.00;;;24.52;;
53618;SDS011;68717;53.040;18.488;2023-04-06T01:08:18;49.00;;;24.88;;
53618;SDS011;68717;53.040;18.488;2023-04-06T01:08:31;50.35;;;24.90;;
53618;SDS011;68717;53.040;18.488;2023-04-06T01:08:45;51.92;;;24.90;;
53618;SDS011;68717;53.040;18.488;2023-04-06T01:08:58;50.40;;;24.83;;
53618;SDS011;68717;53.040;18.488;2023-04-06T01:09:12;53.22;;;25.50;;
53618;SDS011;68717;53.040;18.488;2023-04-06T01:09:24;54.03;;;26.08;;
53618;SDS011;68717;53.040;18.488;2023-04-06T01:09:39;51.78;;;26.67;;
53618;SDS011;68717;53.040;18.488;2023-04-06T01:09:54;52.30;;;27.55;;
53618;SDS011;68717;53.040;18.488;2023-04-06T01:10:07;54.63;;;27.20;;
53618;SDS011;68717;53.040;18.488;2023-04-06T01:10:23;55.72;;;27.42;;
53618;SDS011;68717;53.040;18.488;2023-04-06T01:10:36;51.72;;;27.63;;
53618;SDS011;68717;53.040;18.488;2023-04-06T01:10:50;52.35;;;28.10;;
53618;SDS011;68717;53.040;18.488;2023-04-06T01:11:03;54.92;;;29.27;;
53618;SDS011;68717;53.040;18.488;2023-04-06T01:11:16;56.00;;;30.42;;
53618;SDS011;68717;53.040;18.488;2023-04-06T01:11:29;57.75;;;30.75;;
53618;SDS011;68717;53.040;18.488;2023-04-06T01:11:43;58.67;;;30.52;;
53618;SDS011;68717;53.040;18.488;2023-04-06T01:11:56;58.35;;;30.45;;
53618;SDS011;68717;53.040;18.488;2023-04-06T01:12:09;61.05;;;30.77;;
53618;SDS011;68717;53.040;18.488;2023-04-06T01:12:23;64.75;;;31.60;;
53618;SDS011;68717;53.040;18.488;2023-04-06T01:12:36;65.72;;;32.05;;
53618;SDS011;68717;53.040;18.488;2023-04-06T01:12:50;64.00;;;32.00;;
53618;SDS011;68717;53.040;18.488;2023-04-06T01:13:03;63.85;;;31.75;;
53618;SDS011;68717;53.040;18.488;2023-04-06T01:13:16;59.53;;;31.35;;
53618;SDS011;68717;53.040;18.488;2023-04-06T01:13:29;55.85;;;31.35;;
53618;SDS011;68717;53.040;18.488;2023-04-06T01:13:41;55.55;;;30.83;;
53618;SDS011;68717;53.040;18.488;2023-04-06T01:13:54;56.58;;;29.98;;
53618;SDS011;68717;53.040;18.488;2023-04-06T01:14:08;57.80;;;30.10;;
53618;SDS011;68717;53.040;18.488;2023-04-06T01:14:21;56.08;;;29.80;;
53618;SDS011;68717;53.040;18.488;2023-04-06T01:14:34;53.97;;;29.00;;
53618;SDS011;68717;53.040;18.488;2023-04-06T01:14:47;54.60;;;28.95;;
53618;SDS011;68717;53.040;18.488;2023-04-06T01:15:00;51.65;;;28.35;;
53618;SDS011;68717;53.040;18.488;2023-04-06T01:15:12;50.00;;;27.73;;
53618;SDS011;68717;53.040;18.488;2023-04-06T01:15:27;47.67;;;26.90;;
53618;SDS011;68717;53.040;18.488;2023-04-06T01:15:42;45.75;;;26.05;;
53618;SDS011;68717;53.040;18.488;2023-04-06T01:15:56;47.33;;;25.30;;
53618;SDS011;68717;53.040;18.488;2023-04-06T01:16:09;48.30;;;25.02;;